Time;durP1;ratioP1;P1;durP2;ratioP2;P2;SDS_P1;SDS_P2;PMS_P1;PMS_P2;Temp;Humidity;BMP_temperature;BMP_pressure;BME280_temperature;BME280_humidity;BME280_pressure;Samples;Min_cycle;Max_cycle;Signal;HPM_P1;HPM_P2
2021/10/02 00:35:11;;;;;;;;;7.75;6.75;;;;;15.64;60.60;100964.97;4993451;28;45483;-53
2021/10/02 00:45:51;;;;;;;;;7.25;6.75;;;;;15.60;60.30;100964.19;4998645;28;45378;-51
2021/10/02 00:48:16;;;;;;;;;8.50;8.00;;;;;15.58;60.42;100953.66;4998715;28;45288;-52
2021/10/02 00:50:45;;;;;;;;;7.00;6.00;;;;;15.56;60.92;100950.16;4999450;28;46247;-51
2021/10/02 00:53:10;;;;;;;;;6.25;6.25;;;;;15.58;60.97;100955.41;5002136;28;45290;-52
2021/10/02 00:55:36;;;;;;;;;8.00;6.25;;;;;15.56;60.97;100942.22;5002612;28;45270;-50
2021/10/02 00:58:01;;;;;;;;;5.50;5.50;;;;;15.55;60.67;100935.19;5001055;28;45551;-53
2021/10/02 01:00:27;;;;;;;;;6.75;5.25;;;;;15.55;60.98;100929.88;4984280;28;46083;-51
2021/10/02 01:03:35;;;;;;;;;10.00;8.25;;;;;15.53;61.31;100937.00;5002272;28;45345;-50
2021/10/02 01:06:18;;;;;;;;;7.00;7.00;;;;;15.52;60.81;100935.28;5021401;28;45229;-54
2021/10/02 01:09:10;;;;;;;;;6.75;5.75;;;;;15.50;61.11;100934.47;5015726;28;45550;-51
2021/10/02 01:11:59;;;;;;;;;7.25;7.00;;;;;15.51;60.76;100938.84;5021979;28;46297;-50
2021/10/02 01:14:47;;;;;;;;;7.50;5.50;;;;;15.51;61.16;100930.91;4989223;28;45411;-50
2021/10/02 01:17:31;;;;;;;;;10.00;9.00;;;;;15.49;61.27;100932.72;5014981;28;45231;-51
2021/10/02 01:20:10;;;;;;;;;10.00;9.50;;;;;15.48;61.33;100936.28;4995919;28;45349;-52
2021/10/02 01:23:00;;;;;;;;;11.25;10.25;;;;;15.50;61.33;100938.91;5016915;28;46240;-52
2021/10/02 01:25:35;;;;;;;;;9.00;9.00;;;;;15.49;61.24;100940.66;5001910;28;45320;-53
2021/10/02 01:28:03;;;;;;;;;9.50;8.50;;;;;15.50;60.95;100938.91;5001848;28;45320;-52
2021/10/02 01:33:59;;;;;;;;;9.50;7.75;;;;;15.51;61.60;100930.03;5000346;28;45795;-52
2021/10/02 01:47:23;;;;;;;;;7.75;7.75;;;;;15.46;61.61;100903.72;5001734;28;45278;-52
2021/10/02 01:49:55;;;;;;;;;8.00;7.25;;;;;15.46;61.62;100908.13;5001524;28;45445;-52
2021/10/02 01:52:29;;;;;;;;;10.25;8.00;;;;;15.47;61.37;100905.44;5016491;28;45559;-52
2021/10/02 01:54:55;;;;;;;;;7.75;7.75;;;;;15.48;60.95;100901.84;5016432;28;45977;-51
2021/10/02 01:57:27;;;;;;;;;9.00;8.00;;;;;15.49;61.26;100885.06;5001278;28;45333;-53
2021/10/02 02:00:00;;;;;;;;;8.25;7.75;;;;;15.49;61.10;100884.19;5001471;28;45310;-52
2021/10/02 02:02:31;;;;;;;;;7.00;7.00;;;;;15.51;61.35;100887.66;5000478;28;45304;-50
2021/10/02 02:04:59;;;;;;;;;8.25;7.00;;;;;15.52;60.94;100889.38;4999822;28;46439;-52
2021/10/02 02:07:28;;;;;;;;;6.25;6.25;;;;;15.51;61.28;100880.59;5001188;28;45329;-52
2021/10/02 02:09:56;;;;;;;;;8.50;8.50;;;;;15.52;60.92;100876.16;5000058;28;45319;-51
2021/10/02 02:12:23;;;;;;;;;10.25;7.50;;;;;15.52;60.80;100868.19;4999708;28;45325;-51
2021/10/02 02:14:50;;;;;;;;;7.25;7.00;;;;;15.46;61.62;100860.44;5000691;28;45527;-50
2021/10/02 02:17:21;;;;;;;;;8.75;8.00;;;;;15.47;61.23;100868.38;5001165;28;45281;-53
2021/10/02 02:19:47;;;;;;;;;8.25;7.50;;;;;15.47;60.86;100872.78;5001026;28;45611;-53
2021/10/02 02:22:13;;;;;;;;;8.00;8.00;;;;;15.47;61.18;100872.78;4999346;28;45420;-53
2021/10/02 02:24:39;;;;;;;;;8.00;6.00;;;;;15.46;60.86;100860.44;5000756;28;45400;-52
2021/10/02 02:27:05;;;;;;;;;10.50;8.00;;;;;15.45;61.01;100864.91;5000765;28;45312;-50
2021/10/02 02:29:32;;;;;;;;;8.00;6.25;;;;;15.43;61.04;100872.00;4999859;28;45279;-51
2021/10/02 02:31:59;;;;;;;;;8.00;8.00;;;;;15.46;60.97;100869.28;5016276;28;45182;-52
2021/10/02 02:34:25;;;;;;;;;8.25;7.75;;;;;15.46;61.24;100860.44;5000687;28;45477;-51
2021/10/02 02:36:51;;;;;;;;;8.00;8.00;;;;;15.47;60.97;100855.13;5000383;28;45246;-52
2021/10/02 02:39:16;;;;;;;;;10.50;9.50;;;;;15.46;61.30;100856.03;5000787;28;45351;-53
2021/10/02 02:41:43;;;;;;;;;11.50;9.50;;;;;15.47;61.08;100857.78;5000799;28;45622;-53
2021/10/02 02:44:10;;;;;;;;;6.75;6.50;;;;;15.47;61.52;100841.00;5000122;28;46263;-52
2021/10/02 02:46:37;;;;;;;;;6.50;6.00;;;;;15.47;61.24;100833.94;5000980;28;45333;-52
2021/10/02 02:49:20;;;;;;;;;8.50;6.00;;;;;15.47;61.42;100831.28;4999547;28;45465;-52
2021/10/02 02:52:02;;;;;;;;;8.25;8.25;;;;;15.48;61.15;100827.72;5000565;28;45365;-51
2021/10/02 02:54:39;;;;;;;;;8.25;8.25;;;;;15.48;61.55;100837.44;5000413;28;47135;-52
2021/10/02 02:57:13;;;;;;;;;6.00;5.25;;;;;15.48;61.39;100846.25;5000211;28;45337;-51
2021/10/02 02:59:45;;;;;;;;;11.00;8.75;;;;;15.48;61.53;100835.66;5000571;28;45442;-52
2021/10/02 03:02:16;;;;;;;;;8.25;7.75;;;;;15.50;61.71;100819.72;4997548;28;45270;-52
2021/10/02 03:04:44;;;;;;;;;6.50;6.50;;;;;15.50;61.04;100812.63;5000162;28;45332;-52
2021/10/02 03:07:12;;;;;;;;;7.75;6.50;;;;;15.52;61.32;100812.59;5000118;28;45454;-51
2021/10/02 03:09:44;;;;;;;;;9.50;7.50;;;;;15.54;61.29;100810.75;4999399;28;45357;-52
2021/10/02 03:12:12;;;;;;;;;9.50;8.50;;;;;15.55;61.32;100805.41;5000109;28;45365;-52
2021/10/02 03:14:43;;;;;;;;;7.50;7.50;;;;;15.55;61.64;100812.50;4999960;28;46350;-49
2021/10/02 03:17:10;;;;;;;;;9.50;7.25;;;;;15.57;61.58;100808.00;5000295;28;45317;-50
2021/10/02 03:19:38;;;;;;;;;8.25;7.75;;;;;15.58;61.73;100801.78;5000165;28;45252;-51
2021/10/02 03:22:07;;;;;;;;;9.50;8.00;;;;;15.56;61.80;100791.25;5000071;28;45322;-51
2021/10/02 03:24:36;;;;;;;;;11.25;8.25;;;;;15.56;61.34;100791.25;4999621;28;47096;-51
2021/10/02 03:27:04;;;;;;;;;12.25;10.50;;;;;15.55;61.65;100796.59;5000150;28;45293;-52
2021/10/02 03:29:30;;;;;;;;;7.00;6.50;;;;;15.58;61.49;100815.03;4999918;28;45400;-51
2021/10/02 03:31:56;;;;;;;;;6.50;6.50;;;;;15.54;61.62;100816.91;5000171;28;45256;-52
2021/10/02 03:34:22;;;;;;;;;11.50;7.50;;;;;15.56;61.63;100819.53;4999731;28;46054;-52
2021/10/02 03:36:48;;;;;;;;;7.50;7.50;;;;;15.53;61.93;100798.44;4999672;28;45299;-51
2021/10/02 03:39:16;;;;;;;;;9.75;8.75;;;;;15.51;61.95;100798.50;5000062;28;45407;-50
2021/10/02 03:41:41;;;;;;;;;10.00;8.75;;;;;15.44;62.38;100767.81;5000006;28;45508;-49
2021/10/02 03:44:07;;;;;;;;;9.25;9.25;;;;;15.44;61.87;100760.78;4999524;28;46095;-51
2021/10/02 03:46:32;;;;;;;;;10.50;9.25;;;;;15.44;62.40;100763.41;4999775;28;45380;-51
2021/10/02 03:48:57;;;;;;;;;9.50;9.50;;;;;15.45;61.97;100769.56;4999724;28;45416;-49
2021/10/02 03:51:23;;;;;;;;;10.25;10.00;;;;;15.45;61.93;100764.28;4999852;28;45425;-53
2021/10/02 03:53:48;;;;;;;;;9.25;9.25;;;;;15.45;62.41;100758.97;4999708;28;45334;-51
2021/10/02 03:56:13;;;;;;;;;5.25;5.25;;;;;15.46;62.18;100759.81;5000006;28;45356;-51
2021/10/02 03:58:39;;;;;;;;;7.25;7.25;;;;;15.44;62.42;100754.59;4999891;28;45306;-53
2021/10/02 04:01:04;;;;;;;;;8.50;8.25;;;;;15.39;62.29;100736.19;4999494;28;45372;-51
2021/10/02 04:03:30;;;;;;;;;9.25;8.50;;;;;15.44;62.21;100746.66;4999490;28;45295;-51
2021/10/02 04:05:55;;;;;;;;;8.00;8.00;;;;;15.43;62.42;100737.84;4999729;28;45337;-49
2021/10/02 04:08:20;;;;;;;;;10.25;10.25;;;;;15.46;62.58;100747.47;4999581;28;45222;-50
2021/10/02 04:10:46;;;;;;;;;10.00;8.75;;;;;15.47;62.54;100759.78;4999834;28;45250;-50
2021/10/02 04:13:11;;;;;;;;;10.50;9.75;;;;;15.47;62.29;100757.16;4999363;28;46309;-52
2021/10/02 04:15:37;;;;;;;;;9.00;8.50;;;;;15.47;62.19;100740.38;4998312;28;45317;-52
2021/10/02 04:18:03;;;;;;;;;9.50;8.50;;;;;15.48;62.51;100732.38;4999429;28;45215;-50
2021/10/02 04:20:29;;;;;;;;;8.00;8.00;;;;;15.49;62.18;100723.50;5014204;28;45321;-52
2021/10/02 04:22:54;;;;;;;;;8.00;7.25;;;;;15.50;62.11;100725.25;4997783;28;46248;-51
2021/10/02 04:25:20;;;;;;;;;10.00;9.25;;;;;15.52;62.43;100728.72;4999628;28;45561;-52
2021/10/02 04:27:45;;;;;;;;;9.00;9.00;;;;;15.53;61.88;100738.38;5002514;28;45464;-52
2021/10/02 04:30:10;;;;;;;;;7.50;7.50;;;;;15.54;62.29;100742.75;5003142;28;45460;-52
2021/10/02 04:32:36;;;;;;;;;12.00;10.75;;;;;15.56;62.03;100738.28;5002702;28;45463;-51
2021/10/02 04:35:01;;;;;;;;;14.25;12.75;;;;;15.57;62.10;100742.66;5002692;28;45491;-51
2021/10/02 04:37:27;;;;;;;;;9.25;8.50;;;;;15.60;61.88;100741.69;5002665;28;45314;-52
2021/10/02 04:39:52;;;;;;;;;11.00;9.50;;;;;15.57;62.27;100724.13;5002795;28;45453;-51
2021/10/02 04:42:17;;;;;;;;;16.00;14.00;;;;;15.64;62.02;100730.06;5002470;28;45283;-52
2021/10/02 04:44:43;;;;;;;;;10.75;10.25;;;;;15.65;62.07;100731.78;5002635;28;45281;-53
2021/10/02 04:47:09;;;;;;;;;11.50;9.00;;;;;15.70;61.78;100748.38;5002632;28;45302;-50
2021/10/02 04:49:34;;;;;;;;;14.50;9.25;;;;;15.69;62.05;100749.28;5002645;28;45306;-51
2021/10/02 04:52:00;;;;;;;;;15.25;9.25;;;;;15.73;62.15;100747.41;5002355;28;45583;-49
2021/10/02 04:54:25;;;;;;;;;8.25;8.25;;;;;15.74;61.91;100733.25;5002358;28;45247;-51
2021/10/02 04:56:50;;;;;;;;;11.00;10.00;;;;;15.75;61.65;100730.53;5002425;28;45924;-52
2021/10/02 04:59:16;;;;;;;;;9.50;9.50;;;;;15.76;62.26;100736.72;5002454;28;45243;-51
2021/10/02 05:01:41;;;;;;;;;10.75;10.75;;;;;15.77;62.19;100749.91;5000720;28;45386;-53
2021/10/02 05:04:07;;;;;;;;;9.50;9.50;;;;;15.74;62.23;100736.75;5002234;28;45240;-52
2021/10/02 05:06:32;;;;;;;;;9.50;8.00;;;;;15.77;62.24;100736.66;5002473;28;45346;-53
2021/10/02 05:08:57;;;;;;;;;9.25;7.75;;;;;15.79;62.03;100741.91;5002435;28;45660;-52
2021/10/02 05:11:23;;;;;;;;;10.50;9.25;;;;;15.80;62.19;100742.75;5001919;28;47077;-52
2021/10/02 05:13:48;;;;;;;;;8.50;8.25;;;;;15.79;61.99;100747.19;5001871;28;45293;-51
2021/10/02 05:16:13;;;;;;;;;9.00;7.75;;;;;15.81;62.25;100763.91;5002148;28;45499;-50
2021/10/02 05:18:40;;;;;;;;;9.75;8.00;;;;;15.80;62.14;100758.66;5002136;28;45214;-52
2021/10/02 05:21:06;;;;;;;;;8.00;8.00;;;;;15.81;62.47;100763.91;5001563;28;46150;-52
2021/10/02 05:23:31;;;;;;;;;9.50;8.75;;;;;15.81;62.55;100755.97;5001603;28;45382;-53
2021/10/02 05:25:56;;;;;;;;;8.00;8.00;;;;;15.76;62.62;100744.66;4984554;28;45302;-53
2021/10/02 05:28:23;;;;;;;;;7.25;7.25;;;;;15.82;62.17;100746.25;5001874;28;45248;-53
2021/10/02 05:30:48;;;;;;;;;6.75;6.50;;;;;15.81;62.59;100745.38;5001965;28;46403;-52
2021/10/02 05:33:13;;;;;;;;;7.75;7.75;;;;;15.81;62.46;100734.78;5001853;28;45303;-51
2021/10/02 05:35:39;;;;;;;;;7.25;7.25;;;;;15.80;62.30;100721.56;5000555;28;45425;-53
2021/10/02 05:38:04;;;;;;;;;8.50;5.75;;;;;15.80;62.55;100722.44;5000316;28;45471;-52
2021/10/02 05:40:32;;;;;;;;;6.25;5.50;;;;;15.80;62.36;100718.91;5001706;28;46066;-50
2021/10/02 05:42:59;;;;;;;;;9.00;8.25;;;;;15.77;62.24;100709.28;5000330;28;45518;-54
2021/10/02 05:45:25;;;;;;;;;7.75;7.75;;;;;15.77;62.51;100709.28;5001615;28;45368;-52
2021/10/02 05:47:50;;;;;;;;;7.00;7.00;;;;;15.74;62.24;100709.41;5001574;28;45365;-54
2021/10/02 05:50:16;;;;;;;;;7.00;6.00;;;;;15.75;62.60;100713.78;5001782;28;45298;-51
2021/10/02 05:52:41;;;;;;;;;6.75;6.00;;;;;15.76;62.69;100704.94;5001345;28;45258;-51
2021/10/02 05:55:07;;;;;;;;;5.25;5.25;;;;;15.71;62.60;100691.84;5001443;28;45369;-50
2021/10/02 05:57:33;;;;;;;;;5.75;5.75;;;;;15.73;62.46;100703.22;5001546;28;45350;-49
2021/10/02 05:59:58;;;;;;;;;8.00;6.25;;;;;15.72;62.72;100700.63;5001403;28;45685;-49
2021/10/02 06:02:23;;;;;;;;;9.25;5.25;;;;;15.70;62.75;100702.50;5001254;28;45472;-51
2021/10/02 06:04:49;;;;;;;;;8.50;5.50;;;;;15.67;62.79;100695.53;5001563;28;45583;-50
2021/10/02 06:07:14;;;;;;;;;6.00;5.00;;;;;15.66;62.76;100703.50;5001256;28;45326;-52
2021/10/02 06:09:39;;;;;;;;;8.25;6.75;;;;;15.69;62.89;100708.72;5001369;28;45301;-51
2021/10/02 06:12:05;;;;;;;;;4.25;4.25;;;;;15.67;62.59;100714.06;5001172;28;45246;-51
2021/10/02 06:14:30;;;;;;;;;6.00;4.25;;;;;15.67;62.45;100721.13;5001300;28;45310;-52
2021/10/02 06:16:56;;;;;;;;;7.75;5.25;;;;;15.65;62.77;100717.69;4999914;28;45195;-52
2021/10/02 06:19:21;;;;;;;;;4.25;4.25;;;;;15.66;62.35;100711.44;5000998;28;46310;-51
2021/10/02 06:21:47;;;;;;;;;7.00;4.00;;;;;15.65;62.54;100704.44;5000681;28;45285;-51
2021/10/02 06:24:14;;;;;;;;;9.25;5.50;;;;;15.64;62.46;100700.91;5001147;28;45531;-52
2021/10/02 06:26:40;;;;;;;;;7.50;4.00;;;;;15.66;62.34;100701.75;5001185;28;45244;-51
2021/10/02 06:29:07;;;;;;;;;4.00;4.00;;;;;15.65;62.34;100707.09;5000738;28;47120;-51
2021/10/02 06:31:32;;;;;;;;;5.50;5.50;;;;;15.64;62.22;100713.31;5000932;28;45421;-54
2021/10/02 06:33:58;;;;;;;;;5.50;4.25;;;;;15.63;62.11;100708.94;5000984;28;45508;-52
2021/10/02 06:36:23;;;;;;;;;5.50;4.25;;;;;15.65;62.32;100707.09;5000588;28;45389;-53
2021/10/02 06:38:49;;;;;;;;;5.50;4.50;;;;;15.65;62.39;100704.44;5016118;28;47693;-57
2021/10/02 06:41:15;;;;;;;;;5.25;5.25;;;;;15.65;62.52;100697.34;4999355;28;45341;-53
2021/10/02 06:43:40;;;;;;;;;5.50;4.25;;;;;15.61;62.60;100682.50;5000914;28;45518;-55
2021/10/02 06:46:05;;;;;;;;;5.50;5.00;;;;;15.62;62.41;100696.59;5000988;28;45223;-53
2021/10/02 06:48:31;;;;;;;;;4.00;4.00;;;;;15.63;62.14;100700.97;5000320;28;45610;-53
2021/10/02 06:50:57;;;;;;;;;5.00;5.00;;;;;15.61;62.51;100709.00;5000332;28;45273;-51
2021/10/02 06:53:22;;;;;;;;;5.00;5.00;;;;;15.61;61.87;100703.69;4999611;28;45242;-51
2021/10/02 06:55:48;;;;;;;;;3.75;3.75;;;;;15.62;61.87;100708.03;5015977;28;45260;-53
2021/10/02 06:58:13;;;;;;;;;7.25;3.25;;;;;15.55;61.95;100699.47;5000407;28;45349;-53
2021/10/02 07:00:39;;;;;;;;;4.00;4.00;;;;;15.57;61.84;100695.00;5000424;28;45421;-52
2021/10/02 07:03:05;;;;;;;;;3.00;3.00;;;;;15.55;61.92;100702.13;5000662;28;45472;-56
2021/10/02 07:05:32;;;;;;;;;4.00;2.75;;;;;15.54;62.18;100692.44;5000181;28;45397;-48
2021/10/02 07:07:57;;;;;;;;;4.75;3.50;;;;;15.52;61.98;100704.88;4999882;28;45366;-53
2021/10/02 07:10:23;;;;;;;;;4.25;3.00;;;;;15.53;61.62;100703.09;5000728;28;45317;-52
2021/10/02 07:12:50;;;;;;;;;2.00;2.00;;;;;15.51;61.90;100702.25;5000857;28;45267;-53
2021/10/02 07:15:16;;;;;;;;;4.50;4.50;;;;;15.49;61.98;100693.53;5000208;28;45298;-54
2021/10/02 07:17:42;;;;;;;;;4.50;3.75;;;;;15.46;61.77;100683.91;4998813;28;48294;-54
2021/10/02 07:20:10;;;;;;;;;7.50;3.50;;;;;15.49;61.53;100693.53;5000014;28;45414;-52
2021/10/02 07:22:38;;;;;;;;;3.75;3.00;;;;;15.47;61.75;100693.59;5000139;28;45455;-51
2021/10/02 07:25:06;;;;;;;;;7.25;6.00;;;;;15.44;61.36;100701.63;4998741;28;45346;-51
2021/10/02 07:27:31;;;;;;;;;4.50;3.25;;;;;15.44;61.23;100705.16;4999839;28;46584;-52
2021/10/02 07:29:57;;;;;;;;;3.75;3.25;;;;;15.42;61.16;100698.16;4999292;28;45299;-54
2021/10/02 07:32:23;;;;;;;;;3.50;2.75;;;;;15.43;61.41;100700.78;4988799;28;45505;-53
2021/10/02 07:34:50;;;;;;;;;2.75;1.50;;;;;15.42;61.34;100693.75;4999042;28;45511;-51
2021/10/02 07:37:16;;;;;;;;;2.50;2.50;;;;;15.42;61.18;100690.22;4999510;28;46492;-52
2021/10/02 07:39:42;;;;;;;;;4.50;3.75;;;;;15.39;61.08;100677.94;4999681;28;45318;-53
2021/10/02 07:42:11;;;;;;;;;6.00;4.00;;;;;15.39;61.05;100662.06;4996767;28;45381;-53
2021/10/02 07:44:38;;;;;;;;;3.25;3.00;;;;;15.39;60.89;100658.56;5018235;28;45302;-52
2021/10/02 07:47:03;;;;;;;;;3.75;3.25;;;;;15.36;60.97;100643.66;5019485;28;45351;-52
2021/10/02 07:49:33;;;;;;;;;4.00;2.50;;;;;15.38;60.98;100641.81;5005939;28;45386;-58
2021/10/02 07:51:59;;;;;;;;;4.00;4.00;;;;;15.41;61.36;100640.84;4992541;28;46061;-54
2021/10/02 07:54:26;;;;;;;;;4.00;2.50;;;;;15.42;60.94;100635.50;5001916;28;45514;-55
2021/10/02 07:56:51;;;;;;;;;4.25;3.25;;;;;15.44;61.29;100632.78;4999201;28;46165;-54
2021/10/02 07:59:17;;;;;;;;;6.75;4.00;;;;;15.42;61.09;100634.59;4998679;28;45309;-57
2021/10/02 08:01:43;;;;;;;;;2.75;1.50;;;;;15.43;60.55;100621.34;5001055;28;45302;-58
2021/10/02 08:04:09;;;;;;;;;4.75;4.75;;;;;15.46;60.52;100627.44;5002413;28;45329;-57
2021/10/02 08:06:36;;;;;;;;;6.50;4.75;;;;;15.50;60.66;100635.22;5002217;28;46210;-57
2021/10/02 08:09:03;;;;;;;;;3.75;2.25;;;;;15.52;60.84;100633.38;5002427;28;45348;-55
2021/10/02 08:11:29;;;;;;;;;7.25;3.00;;;;;15.57;61.12;100644.66;5001744;28;45509;-56
2021/10/02 08:13:55;;;;;;;;;3.00;2.50;;;;;15.59;60.67;100634.00;5001099;28;45391;-56
2021/10/02 08:16:26;;;;;;;;;5.25;4.75;;;;;15.62;60.71;100638.31;5001484;28;45397;-57
2021/10/02 08:18:55;;;;;;;;;7.25;4.00;;;;;15.64;60.79;100636.50;5000246;28;45878;-58
2021/10/02 08:21:21;;;;;;;;;4.75;4.75;;;;;15.67;61.12;100639.03;5000770;28;45525;-54
2021/10/02 08:23:47;;;;;;;;;7.75;6.25;;;;;15.70;61.19;100631.81;5001312;28;45293;-54
2021/10/02 08:26:16;;;;;;;;;6.00;5.75;;;;;15.69;60.73;100624.78;5000581;28;45224;-55
2021/10/02 08:28:50;;;;;;;;;6.00;5.75;;;;;15.70;60.71;100620.38;5001564;28;45702;-57
2021/10/02 08:31:18;;;;;;;;;6.25;4.25;;;;;15.67;60.37;100626.66;5001028;28;45555;-58
2021/10/02 08:33:43;;;;;;;;;5.50;4.25;;;;;15.68;60.73;100616.91;4998629;28;45361;-58
2021/10/02 08:36:10;;;;;;;;;5.25;5.25;;;;;15.67;60.35;100618.72;4994904;28;48204;-52
2021/10/02 08:38:36;;;;;;;;;4.00;4.00;;;;;15.70;61.03;100618.59;5001958;28;45330;-54
2021/10/02 08:41:03;;;;;;;;;5.00;3.50;;;;;15.69;60.33;100593.00;5001371;28;45338;-51
2021/10/02 08:43:29;;;;;;;;;8.50;3.75;;;;;15.69;60.44;100613.34;4980668;28;45534;-57
2021/10/02 08:45:55;;;;;;;;;4.50;4.50;;;;;15.66;60.55;100590.50;5001193;28;46226;-56
2021/10/02 08:48:21;;;;;;;;;6.50;5.50;;;;;15.71;60.41;100596.47;4995505;28;45548;-50
2021/10/02 08:50:47;;;;;;;;;4.25;4.25;;;;;15.74;60.78;100587.53;5000275;28;45630;-52
2021/10/02 08:53:14;;;;;;;;;2.75;2.75;;;;;15.73;60.38;100584.00;4998170;28;45552;-56
2021/10/02 08:55:41;;;;;;;;;3.50;2.25;;;;;15.74;60.56;100580.44;4997943;28;45410;-58
2021/10/02 08:58:07;;;;;;;;;6.25;4.50;;;;;15.72;60.61;100570.84;5000960;28;46311;-58
2021/10/02 09:00:32;;;;;;;;;4.00;4.00;;;;;15.80;60.66;100574.06;4999018;28;45685;-59
2021/10/02 09:02:58;;;;;;;;;6.00;5.75;;;;;15.85;60.16;100574.78;4998863;28;45517;-58
2021/10/02 09:05:28;;;;;;;;;6.50;4.75;;;;;15.87;60.11;100565.00;4996209;28;45440;-58
2021/10/02 09:07:57;;;;;;;;;4.75;4.00;;;;;15.89;60.08;100560.47;4999310;28;45377;-58
2021/10/02 09:10:24;;;;;;;;;5.00;4.00;;;;;15.92;60.08;100578.94;4997263;28;45539;-58
2021/10/02 09:12:50;;;;;;;;;5.50;4.25;;;;;15.96;60.30;100568.19;5000947;28;45446;-56
2021/10/02 09:15:17;;;;;;;;;3.75;3.50;;;;;16.00;60.31;100562.72;4994335;28;46596;-58
2021/10/02 09:17:43;;;;;;;;;6.00;3.75;;;;;16.06;59.96;100548.34;4998230;28;45325;-56
2021/10/02 09:20:11;;;;;;;;;5.00;4.25;;;;;16.11;60.33;100553.47;4997078;28;45763;-57
2021/10/02 09:22:37;;;;;;;;;5.00;3.75;;;;;16.16;59.74;100565.63;4999445;28;45564;-57
2021/10/02 09:25:09;;;;;;;;;3.25;3.25;;;;;16.23;59.98;100545.88;4996153;28;45499;-57
2021/10/02 09:27:36;;;;;;;;;6.25;2.50;;;;;16.27;59.93;100529.84;4999863;28;45722;-58
2021/10/02 09:30:12;;;;;;;;;2.25;2.00;;;;;16.37;60.16;100517.94;5001477;28;45341;-58
2021/10/02 09:32:43;;;;;;;;;5.25;4.00;;;;;16.47;60.07;100510.47;4998365;28;45263;-57
2021/10/02 09:35:12;;;;;;;;;13.00;11.50;;;;;16.54;60.09;100496.88;4998855;28;45474;-59
2021/10/02 09:37:40;;;;;;;;;6.00;4.00;;;;;16.65;59.76;100492.88;4994006;28;45787;-68
2021/10/02 09:40:06;;;;;;;;;4.50;3.00;;;;;16.77;59.80;100497.66;5001616;28;45307;-49
2021/10/02 09:42:31;;;;;;;;;3.00;2.00;;;;;16.87;60.00;100488.34;4994612;28;45744;-51
2021/10/02 09:45:22;;;;;;;;;3.75;3.50;;;;;17.01;59.55;100486.91;5002554;28;46079;-53
2021/10/02 09:47:53;;;;;;;;;3.00;2.50;;;;;17.09;59.48;100463.53;5000089;28;45423;-49
2021/10/02 09:50:21;;;;;;;;;3.25;2.50;;;;;17.18;59.56;100463.13;4998146;28;45377;-47
2021/10/02 09:52:54;;;;;;;;;4.25;3.25;;;;;17.27;59.54;100445.91;5002109;28;45293;-49
2021/10/02 09:55:28;;;;;;;;;5.00;5.00;;;;;17.36;59.54;100445.47;5001340;28;46087;-50
2021/10/02 09:58:10;;;;;;;;;4.50;3.75;;;;;17.47;59.38;100452.03;4989975;28;45423;-49
2021/10/02 10:00:47;;;;;;;;;7.00;4.25;;;;;17.56;59.42;100438.34;4995735;28;45365;-46
2021/10/02 10:03:14;;;;;;;;;2.00;2.00;;;;;17.67;58.97;100440.47;4992838;28;45528;-48
2021/10/02 10:05:42;;;;;;;;;5.50;3.50;;;;;17.76;59.14;100418.78;4996836;28;46313;-49
2021/10/02 10:08:10;;;;;;;;;4.00;3.00;;;;;17.82;58.90;100415.81;4997056;28;45420;-49
2021/10/02 10:10:39;;;;;;;;;2.25;2.25;;;;;17.90;58.67;100409.22;4995977;28;45441;-46
2021/10/02 10:13:12;;;;;;;;;4.00;1.00;;;;;17.98;58.17;100412.41;4996753;28;45509;-50
2021/10/02 10:15:53;;;;;;;;;2.50;2.00;;;;;18.05;58.40;100391.69;4998460;28;47313;-49
2021/10/02 10:18:39;;;;;;;;;2.00;2.00;;;;;18.17;58.18;100386.59;4998923;28;45343;-48
2021/10/02 10:21:10;;;;;;;;;3.00;3.00;;;;;18.29;58.18;100379.78;4995772;28;45487;-50
2021/10/02 10:23:41;;;;;;;;;3.00;3.00;;;;;18.38;58.26;100365.16;4995401;28;45248;-52
2021/10/02 10:26:15;;;;;;;;;2.00;2.00;;;;;18.50;57.82;100364.50;4994633;28;46779;-50
2021/10/02 10:28:43;;;;;;;;;1.00;1.00;;;;;18.61;57.55;100355.09;4999207;28;45443;-51
2021/10/02 10:31:13;;;;;;;;;2.75;2.75;;;;;18.66;57.44;100342.38;4993279;28;45427;-51
2021/10/02 10:33:40;;;;;;;;;2.00;2.00;;;;;18.77;57.83;100332.00;4994785;28;45326;-49
2021/10/02 10:36:06;;;;;;;;;3.50;2.00;;;;;18.86;57.60;100321.81;4994879;28;45432;-47
2021/10/02 10:38:35;;;;;;;;;3.25;2.25;;;;;18.93;57.32;100325.84;4994117;28;45427;-51
2021/10/02 10:41:02;;;;;;;;;1.25;1.25;;;;;18.99;57.55;100321.06;4994401;28;45413;-52
2021/10/02 10:43:29;;;;;;;;;2.00;2.00;;;;;19.05;57.05;100327.84;4996299;28;45473;-52
2021/10/02 10:46:03;;;;;;;;;1.00;1.00;;;;;19.08;56.95;100318.81;4994931;28;47137;-49
2021/10/02 10:48:28;;;;;;;;;0.50;0.50;;;;;19.10;56.77;100309.78;4998558;28;45353;-48
2021/10/02 10:51:00;;;;;;;;;3.25;2.25;;;;;19.13;56.48;100322.94;4994929;28;45498;-48
2021/10/02 10:53:34;;;;;;;;;1.50;1.50;;;;;19.15;56.24;100322.84;4996340;28;45441;-51
2021/10/02 10:56:00;;;;;;;;;1.75;1.75;;;;;19.15;56.21;100320.19;4999010;28;48012;-48
2021/10/02 10:58:28;;;;;;;;;1.00;1.00;;;;;19.16;56.39;100317.44;4999192;28;45266;-49
2021/10/02 11:00:55;;;;;;;;;2.75;1.50;;;;;19.16;55.74;100300.63;4997487;28;46008;-52
2021/10/02 11:03:34;;;;;;;;;4.00;1.25;;;;;19.12;55.75;100301.75;4995826;28;46683;-50
2021/10/02 11:06:00;;;;;;;;;4.00;4.00;;;;;19.19;55.67;100296.91;4996526;28;46123;-52
2021/10/02 11:08:48;;;;;;;;;2.50;2.50;;;;;19.21;56.10;100308.34;4998329;28;46475;-52
2021/10/02 11:11:14;;;;;;;;;2.25;2.25;;;;;19.19;55.72;100300.44;4997182;28;45527;-47
2021/10/02 11:13:46;;;;;;;;;1.25;1.25;;;;;19.14;55.66;100287.41;4993000;28;45992;-47
2021/10/02 11:16:32;;;;;;;;;3.75;2.25;;;;;19.11;55.81;100284.88;4995685;28;46182;-50
2021/10/02 11:18:58;;;;;;;;;3.50;3.50;;;;;19.08;56.02;100277.09;4995304;28;45386;-49
2021/10/02 11:21:29;;;;;;;;;5.25;3.00;;;;;19.09;55.89;100270.78;4996819;28;45227;-49
2021/10/02 11:24:14;;;;;;;;;4.75;3.75;;;;;19.02;55.56;100261.47;4995783;28;45426;-51
2021/10/02 11:26:46;;;;;;;;;2.50;1.00;;;;;18.98;56.12;100260.78;5007755;28;46195;-48
2021/10/02 11:29:18;;;;;;;;;4.50;4.50;;;;;18.98;55.87;100268.75;4997142;28;45751;-51
2021/10/02 11:31:43;;;;;;;;;2.50;2.50;;;;;18.92;56.21;100247.81;4997911;28;45504;-48
2021/10/02 11:34:21;;;;;;;;;4.00;3.00;;;;;18.93;56.41;100252.19;4995509;28;45479;-46
2021/10/02 11:36:55;;;;;;;;;5.25;5.25;;;;;18.94;56.03;100251.25;4993259;28;47197;-45
2021/10/02 11:39:26;;;;;;;;;7.00;7.00;;;;;18.93;56.41;100224.69;4999635;28;45701;-49
2021/10/02 11:41:54;;;;;;;;;6.00;6.00;;;;;18.92;56.31;100236.31;4991997;28;45405;-46
2021/10/02 11:44:35;;;;;;;;;7.00;4.00;;;;;18.94;56.41;100221.09;4997716;28;45496;-51
2021/10/02 11:47:25;;;;;;;;;2.75;2.00;;;;;18.96;56.20;100219.22;4999513;28;46037;-49
2021/10/02 11:50:09;;;;;;;;;3.00;3.00;;;;;18.97;56.44;100205.81;4991427;28;45304;-51
2021/10/02 11:52:36;;;;;;;;;4.75;4.00;;;;;18.99;56.50;100185.28;4999202;28;45159;-52
2021/10/02 11:55:46;;;;;;;;;3.00;3.00;;;;;18.98;56.46;100183.56;4999818;28;45457;-51
2021/10/02 11:58:12;;;;;;;;;3.75;3.00;;;;;19.00;56.60;100171.03;4990866;28;45306;-51
2021/10/02 12:00:50;;;;;;;;;3.00;2.00;;;;;19.00;56.42;100175.47;4994296;28;45591;-50
2021/10/02 12:03:17;;;;;;;;;3.25;3.25;;;;;18.94;56.28;100154.53;5005112;28;45440;-50
2021/10/02 12:05:44;;;;;;;;;2.25;2.25;;;;;18.94;56.46;100162.53;4986901;28;45340;-49
2021/10/02 12:08:10;;;;;;;;;2.75;2.00;;;;;18.90;56.32;100145.00;4999429;28;45529;-46
2021/10/02 12:10:54;;;;;;;;;2.50;1.50;;;;;18.87;56.08;100142.50;4999175;28;45333;-51
2021/10/02 12:13:29;;;;;;;;;4.00;4.00;;;;;18.86;56.25;100133.66;4999508;28;45323;-50
2021/10/02 12:16:02;;;;;;;;;5.25;3.50;;;;;18.87;56.00;100121.19;4999550;28;45439;-50
2021/10/02 12:19:05;;;;;;;;;2.00;2.00;;;;;18.89;56.62;100121.97;4999269;28;46163;-50
2021/10/02 12:21:46;;;;;;;;;3.25;3.25;;;;;18.89;56.57;100114.00;4996213;28;45337;-49
2021/10/02 12:24:16;;;;;;;;;5.25;4.50;;;;;18.91;56.42;100114.81;4996928;28;45331;-47
2021/10/02 12:26:44;;;;;;;;;3.50;3.50;;;;;18.91;56.17;100101.50;4995235;28;45446;-48
2021/10/02 12:29:12;;;;;;;;;4.00;4.00;;;;;18.91;56.46;100109.47;4997038;28;45493;-48